createdAt,value
2023-04-28T05:32:47.137Z,13.90
2023-04-28T05:35:49.425Z,13.90
2023-04-28T05:38:51.445Z,13.90
2023-04-28T05:41:54.808Z,13.80
2023-04-28T05:44:56.574Z,13.50
2023-04-28T05:47:58.551Z,13.40
2023-04-28T05:51:00.455Z,13.50
2023-04-28T05:54:03.252Z,13.40
2023-04-28T05:57:05.472Z,13.40
2023-04-28T06:00:08.437Z,13.40
2023-04-28T06:03:11.517Z,13.20
2023-04-28T06:06:13.699Z,13.30
2023-04-28T06:09:16.053Z,13.20
2023-04-28T06:12:18.130Z,13.00
2023-04-28T06:49:08.449Z,12.70
2023-04-28T06:52:10.666Z,12.90
2023-04-28T06:55:16.154Z,13.30
2023-04-28T06:58:18.071Z,13.50
2023-04-28T07:01:20.023Z,13.50
2023-04-28T07:04:22.711Z,13.40
2023-04-28T07:07:24.960Z,13.30
2023-04-28T07:10:26.824Z,13.30
2023-04-28T07:13:28.874Z,13.20
2023-04-28T07:16:31.661Z,13.20
2023-04-28T07:19:36.664Z,13.20
2023-04-28T07:22:41.458Z,13.20
2023-04-28T07:25:56.904Z,13.20
2023-04-28T07:29:00.877Z,13.00
2023-04-28T07:32:07.295Z,12.80
2023-04-28T07:35:09.668Z,12.80
2023-04-28T07:38:11.654Z,12.30
2023-04-28T07:41:13.796Z,12.00
2023-04-28T07:44:15.857Z,11.90
2023-04-28T07:47:18.112Z,11.90
2023-04-28T07:50:20.399Z,11.80
2023-04-28T07:53:22.881Z,11.90
2023-04-28T07:56:25.968Z,11.90
2023-04-28T07:59:28.122Z,11.90
2023-04-28T08:02:29.987Z,11.90
2023-04-28T08:05:32.693Z,11.80
2023-04-28T08:08:35.237Z,11.80
2023-04-28T08:11:37.284Z,11.80
2023-04-28T08:14:39.078Z,11.90
2023-04-28T08:17:41.377Z,12.00
2023-04-28T08:20:45.710Z,12.20
2023-04-28T08:23:47.838Z,12.20
2023-04-28T08:26:49.868Z,12.30
2023-04-28T08:29:53.523Z,12.40
2023-04-28T08:32:57.159Z,12.50
2023-04-28T08:35:59.910Z,12.70
2023-04-28T08:39:04.078Z,12.70
2023-04-28T08:42:07.339Z,12.80
2023-04-28T08:45:14.563Z,13.00
2023-04-28T08:48:21.379Z,13.10
2023-04-28T08:51:34.403Z,13.20
2023-04-28T08:54:38.353Z,13.30
2023-04-28T08:57:52.107Z,13.10
2023-04-28T09:00:54.559Z,13.00
2023-04-28T09:03:57.300Z,13.30
2023-04-28T09:06:59.527Z,13.30
2023-04-28T09:10:22.271Z,13.40
2023-04-28T09:13:27.643Z,13.70
2023-04-28T09:16:42.824Z,13.60
2023-04-28T09:19:44.727Z,13.90
2023-04-28T09:22:46.488Z,14.30
2023-04-28T09:26:06.390Z,14.40
2023-04-28T09:29:14.775Z,14.50
2023-04-28T09:32:18.970Z,14.70
2023-04-28T09:35:40.113Z,14.80
2023-04-28T09:38:46.331Z,14.80
2023-04-28T09:41:59.973Z,14.90
2023-04-28T09:45:07.393Z,15.00
2023-04-28T09:48:12.482Z,15.10
2023-04-28T09:51:31.718Z,15.20
2023-04-28T09:54:36.720Z,15.30
2023-04-28T09:57:41.031Z,15.40
2023-04-28T10:00:46.084Z,15.60
2023-04-28T10:03:49.926Z,15.80
2023-04-28T10:06:56.663Z,16.20
2023-04-28T10:10:03.821Z,16.30
2023-04-28T10:13:09.881Z,16.40
2023-04-28T10:16:15.959Z,16.50
2023-04-28T10:19:20.712Z,16.80
2023-04-28T10:22:42.285Z,17.00
2023-04-28T10:25:50.816Z,17.40
2023-04-28T10:28:53.995Z,17.80
2023-04-28T10:32:16.678Z,17.80
2023-04-28T10:35:28.801Z,17.80
2023-04-28T10:38:30.756Z,17.80
2023-04-28T10:41:33.511Z,17.80
2023-04-28T10:44:35.648Z,17.40
2023-04-28T10:48:06.468Z,17.40
2023-04-28T10:51:12.808Z,17.50
2023-04-28T10:54:15.630Z,17.70
2023-04-28T10:57:18.874Z,18.30
2023-04-28T11:00:30.837Z,18.40
2023-04-28T11:03:49.353Z,19.20
2023-04-28T11:07:11.783Z,18.90
2023-04-28T11:10:13.475Z,18.20
2023-04-28T11:13:33.924Z,18.40
2023-04-28T11:16:48.471Z,18.40
2023-04-28T11:19:51.306Z,18.80
2023-04-28T11:22:53.203Z,19.20
2023-04-28T11:25:55.795Z,19.30
2023-04-28T11:28:58.526Z,19.00
2023-04-28T11:32:00.568Z,18.80
2023-04-28T11:35:04.237Z,18.60
2023-04-28T11:38:05.927Z,18.70
2023-04-28T11:41:08.114Z,18.50
2023-04-28T11:44:17.909Z,18.50
2023-04-28T11:47:32.532Z,18.20
2023-04-28T11:50:38.458Z,18.50
2023-04-28T11:53:44.847Z,18.90
2023-04-28T11:56:46.978Z,19.20
2023-04-28T11:59:49.746Z,18.80
2023-04-28T12:02:52.255Z,18.70
2023-04-28T12:05:54.128Z,18.80
2023-04-28T12:08:56.036Z,19.00
2023-04-28T12:12:00.149Z,18.60
2023-04-28T12:15:07.313Z,18.80
2023-04-28T12:18:12.711Z,19.20
2023-04-28T12:21:21.872Z,19.20
2023-04-28T12:24:26.093Z,19.40
2023-04-28T12:27:29.151Z,18.60
2023-04-28T12:30:33.293Z,18.60
2023-04-28T12:33:39.472Z,18.50
2023-04-28T12:36:41.333Z,18.20
2023-04-28T12:39:43.424Z,17.80
2023-04-28T12:42:45.529Z,17.60
2023-04-28T12:45:47.734Z,17.70
2023-04-28T12:48:50.060Z,17.60
2023-04-28T12:51:51.882Z,17.60
2023-04-28T12:54:53.499Z,17.80
2023-04-28T12:57:55.357Z,18.30
2023-04-28T13:00:57.013Z,18.70
2023-04-28T13:04:00.319Z,19.10
2023-04-28T13:07:02.527Z,19.30
2023-04-28T13:10:04.485Z,19.70
2023-04-28T13:13:06.134Z,20.40
2023-04-28T13:16:08.118Z,19.90
2023-04-28T13:19:13.592Z,20.00
2023-04-28T13:22:15.770Z,19.80
2023-04-28T13:25:17.438Z,19.50
2023-04-28T13:28:19.221Z,18.90
2023-04-28T13:31:21.116Z,18.80
2023-04-28T13:34:22.965Z,18.90
2023-04-28T13:37:24.624Z,18.90
2023-04-28T13:40:26.354Z,18.70
2023-04-28T13:43:28.105Z,18.70
2023-04-28T13:46:30.543Z,19.00
2023-04-28T13:49:32.192Z,18.80
2023-04-28T13:52:33.840Z,18.60
2023-04-28T13:55:35.537Z,18.30
2023-04-28T13:58:37.550Z,17.60
2023-04-28T14:01:39.207Z,17.50
2023-04-28T14:04:41.183Z,17.10
2023-04-28T14:07:43.768Z,16.90
2023-04-28T14:10:45.685Z,16.60
2023-04-28T14:13:47.301Z,16.50
2023-04-28T14:16:49.058Z,17.10
2023-04-28T14:19:50.793Z,17.20
2023-04-28T14:22:52.567Z,17.60
2023-04-28T14:25:58.064Z,17.80
2023-04-28T14:29:00.554Z,18.00
2023-04-28T14:32:02.190Z,17.80
2023-04-28T14:35:06.087Z,17.90
2023-04-28T14:38:07.761Z,18.00
2023-04-28T14:41:09.491Z,18.00
2023-04-28T14:44:11.244Z,18.00
2023-04-28T14:47:13.213Z,18.10
2023-04-28T14:50:14.863Z,18.40
2023-04-28T14:53:16.909Z,18.70
2023-04-28T14:56:20.369Z,19.00
2023-04-28T14:59:22.959Z,18.70
2023-04-28T15:02:29.406Z,19.00
2023-04-28T15:05:31.974Z,18.90
2023-04-28T15:08:33.650Z,18.90
2023-04-28T15:11:35.486Z,19.00
2023-04-28T15:14:37.119Z,19.10
2023-04-28T15:17:39.125Z,19.40
2023-04-28T15:20:40.924Z,18.90
2023-04-28T15:23:42.579Z,18.90
2023-04-28T15:26:44.365Z,18.60
2023-04-28T15:29:46.099Z,18.40
2023-04-28T15:32:49.504Z,18.40
2023-04-28T15:35:51.262Z,18.20
2023-04-28T15:38:53.033Z,18.20
2023-04-28T15:41:56.071Z,18.30
2023-04-28T15:44:57.839Z,18.10
2023-04-28T15:47:59.739Z,18.00
2023-04-28T15:51:01.662Z,17.80
2023-04-28T15:54:03.484Z,17.50
2023-04-28T15:57:05.881Z,17.60
2023-04-28T16:00:09.036Z,17.80
